KBRY

Samuels Field Airport

Bardstown, Kentucky, USA
METAR KBRY 191235Z AUTO 00000KT 7SM CLR 20/20 A3000 RMK AO1
Observed Flight Rules
Sep-19 @ 12:35 UTC (21 minutes ago) Visual Flight Rules
Visibility Clouds
7 miles
  • Clear skies
Temperatures Readings
Current 20°C / 68°F
Dewpoint 20°C / 68°F
Humidity 100%
Altimeter 30" Hg
Pressure 1016 hPa
Elevation 204
METAR KBRY 191235Z AUTO 00000KT 7SM CLR 20/20 A3000 RMK AO1
Observed Flight Rules
Sep-19 @ 12:35 UTC
(21 minutes ago)
VFR
Clouds
  • Clear skies
Temperature Dewpoint
20°C / 68°F 20°C / 68°F
Humidity Altimeter Pressure
100% 30" Hg 1016 hPa